KLYH/LYH METAR and TAF weather

Enter ICAO airport designator
Station Type Date Time Source
KLYH METAR 2019/12/07 14:54 UTC NOAA

KLYH 071454Z 09009KT 10SM FEW019 06/M02 A3037 RMK AO2 SLP288 T00561017 52024


Station Type Date Time Source
KLYH Decoded METAR 2019/12/07 14:54 UTC NOAA

LYNCHBURG REGIONAL AIRPORT, VA, United States (KLYH) 37-19N 079-12W 295M
Dec 07, 2019 - 09:54 AM EST / 2019.12.07 1454 UTC
Wind: from the E (090 degrees) at 10 MPH (9 KT):0
Visibility: 10 mile(s):0
Sky conditions: mostly clear
Temperature: 42.1 F (5.6 C)
Dew Point: 28.9 F (-1.7 C)
Relative Humidity: 59%
Pressure (altimeter): 30.37 in. Hg (1028 hPa)
Pressure tendency: 0.07 inches (2.4 hPa) higher than three hours ago
ob: KLYH 071454Z 09009KT 10SM FEW019 06/M02 A3037 RMK AO2 SLP288 T00561017 52024
cycle: 15

Station Type Date Time Source
KLYH TAF 2019/12/07 12:48 UTC NOAA

TAF KLYH 071140Z 0712/0812 05008G16KT P6SM SCT045
TEMPO 0712/0715 BKN045
FM071800 05005KT P6SM SKC
FM072200 VRB03KT P6SM SKC

Example: see airport list